sensor_id;sensor_type;location;lat;lon;timestamp;temperature;humidity
83685;DHT22;73666;51.304;5.776;2023-11-19T00:01:56;11.80;81.90
83685;DHT22;73666;51.304;5.776;2023-11-19T00:06:57;11.90;81.90
83685;DHT22;73666;51.304;5.776;2023-11-19T00:12:06;11.90;81.90
83685;DHT22;73666;51.304;5.776;2023-11-19T00:17:07;11.90;81.90
83685;DHT22;73666;51.304;5.776;2023-11-19T00:22:08;11.90;82.00
83685;DHT22;73666;51.304;5.776;2023-11-19T00:27:09;12.00;81.90
83685;DHT22;73666;51.304;5.776;2023-11-19T00:32:09;12.00;82.00
83685;DHT22;73666;51.304;5.776;2023-11-19T00:37:10;12.00;82.00
83685;DHT22;73666;51.304;5.776;2023-11-19T00:42:11;12.10;82.00
83685;DHT22;73666;51.304;5.776;2023-11-19T00:47:12;12.10;82.00
83685;DHT22;73666;51.304;5.776;2023-11-19T00:52:12;12.10;82.00
83685;DHT22;73666;51.304;5.776;2023-11-19T00:57:13;12.10;82.00
83685;DHT22;73666;51.304;5.776;2023-11-19T01:02:14;12.00;82.10
83685;DHT22;73666;51.304;5.776;2023-11-19T01:07:15;12.00;82.20
83685;DHT22;73666;51.304;5.776;2023-11-19T01:12:16;12.00;82.30
83685;DHT22;73666;51.304;5.776;2023-11-19T01:17:20;12.00;82.40
83685;DHT22;73666;51.304;5.776;2023-11-19T01:22:21;12.10;82.30
83685;DHT22;73666;51.304;5.776;2023-11-19T01:27:21;12.10;82.20
83685;DHT22;73666;51.304;5.776;2023-11-19T01:32:22;12.10;82.20
83685;DHT22;73666;51.304;5.776;2023-11-19T01:37:24;12.10;82.20
83685;DHT22;73666;51.304;5.776;2023-11-19T01:42:28;12.20;82.20
83685;DHT22;73666;51.304;5.776;2023-11-19T01:47:30;12.20;82.20
83685;DHT22;73666;51.304;5.776;2023-11-19T01:52:32;12.20;82.20
83685;DHT22;73666;51.304;5.776;2023-11-19T01:57:34;12.20;82.20
83685;DHT22;73666;51.304;5.776;2023-11-19T02:02:38;12.20;82.10
83685;DHT22;73666;51.304;5.776;2023-11-19T02:07:41;12.20;82.20
83685;DHT22;73666;51.304;5.776;2023-11-19T02:12:42;12.20;82.20
83685;DHT22;73666;51.304;5.776;2023-11-19T02:17:46;12.10;82.20
83685;DHT22;73666;51.304;5.776;2023-11-19T02:22:47;12.20;82.30
83685;DHT22;73666;51.304;5.776;2023-11-19T02:27:59;12.20;82.20
83685;DHT22;73666;51.304;5.776;2023-11-19T02:33:01;12.20;82.00
83685;DHT22;73666;51.304;5.776;2023-11-19T02:38:05;12.00;82.00
83685;DHT22;73666;51.304;5.776;2023-11-19T02:43:10;11.90;82.00
83685;DHT22;73666;51.304;5.776;2023-11-19T02:48:11;11.90;82.30
83685;DHT22;73666;51.304;5.776;2023-11-19T02:53:12;11.90;82.30
83685;DHT22;73666;51.304;5.776;2023-11-19T02:58:14;11.90;82.10
83685;DHT22;73666;51.304;5.776;2023-11-19T03:03:20;11.70;82.10
83685;DHT22;73666;51.304;5.776;2023-11-19T03:08:23;11.70;82.10
83685;DHT22;73666;51.304;5.776;2023-11-19T03:13:23;11.50;82.10
83685;DHT22;73666;51.304;5.776;2023-11-19T03:18:24;11.50;82.10
83685;DHT22;73666;51.304;5.776;2023-11-19T03:23:25;11.50;82.20
83685;DHT22;73666;51.304;5.776;2023-11-19T03:28:28;11.40;82.10
83685;DHT22;73666;51.304;5.776;2023-11-19T03:33:29;11.40;82.20
83685;DHT22;73666;51.304;5.776;2023-11-19T03:38:29;11.40;82.30
83685;DHT22;73666;51.304;5.776;2023-11-19T03:43:31;11.40;82.30
83685;DHT22;73666;51.304;5.776;2023-11-19T03:48:32;11.40;82.30
83685;DHT22;73666;51.304;5.776;2023-11-19T03:53:32;11.40;82.20
83685;DHT22;73666;51.304;5.776;2023-11-19T03:58:33;11.40;82.20
83685;DHT22;73666;51.304;5.776;2023-11-19T04:03:34;11.40;82.20
83685;DHT22;73666;51.304;5.776;2023-11-19T04:08:35;11.40;82.20
83685;DHT22;73666;51.304;5.776;2023-11-19T04:13:36;11.40;82.10
83685;DHT22;73666;51.304;5.776;2023-11-19T04:18:36;11.30;82.00
83685;DHT22;73666;51.304;5.776;2023-11-19T04:23:37;11.20;82.20
83685;DHT22;73666;51.304;5.776;2023-11-19T04:28:38;11.10;82.20
83685;DHT22;73666;51.304;5.776;2023-11-19T04:33:39;11.10;82.20
83685;DHT22;73666;51.304;5.776;2023-11-19T04:38:39;11.30;82.30
83685;DHT22;73666;51.304;5.776;2023-11-19T04:43:40;11.30;82.20
83685;DHT22;73666;51.304;5.776;2023-11-19T04:48:41;11.30;82.10
83685;DHT22;73666;51.304;5.776;2023-11-19T04:53:42;11.30;82.00
83685;DHT22;73666;51.304;5.776;2023-11-19T04:58:43;11.30;81.90
83685;DHT22;73666;51.304;5.776;2023-11-19T05:03:44;11.30;81.90
83685;DHT22;73666;51.304;5.776;2023-11-19T05:08:49;11.30;81.80
83685;DHT22;73666;51.304;5.776;2023-11-19T05:13:52;11.30;81.80
83685;DHT22;73666;51.304;5.776;2023-11-19T05:18:53;11.40;81.80
83685;DHT22;73666;51.304;5.776;2023-11-19T05:23:54;11.50;81.70
83685;DHT22;73666;51.304;5.776;2023-11-19T05:28:54;11.50;81.60
83685;DHT22;73666;51.304;5.776;2023-11-19T05:33:55;11.40;81.50
83685;DHT22;73666;51.304;5.776;2023-11-19T05:38:56;11.40;81.20
83685;DHT22;73666;51.304;5.776;2023-11-19T05:43:57;11.20;81.30
83685;DHT22;73666;51.304;5.776;2023-11-19T05:48:58;11.10;81.30
83685;DHT22;73666;51.304;5.776;2023-11-19T05:53:58;11.00;81.40
83685;DHT22;73666;51.304;5.776;2023-11-19T05:59:00;11.00;81.20
83685;DHT22;73666;51.304;5.776;2023-11-19T06:04:07;10.90;81.20
83685;DHT22;73666;51.304;5.776;2023-11-19T06:09:08;10.80;81.30
83685;DHT22;73666;51.304;5.776;2023-11-19T06:14:10;10.80;81.20
83685;DHT22;73666;51.304;5.776;2023-11-19T06:19:10;10.70;81.20
83685;DHT22;73666;51.304;5.776;2023-11-19T06:24:12;10.70;81.20
83685;DHT22;73666;51.304;5.776;2023-11-19T06:29:13;10.60;81.10
83685;DHT22;73666;51.304;5.776;2023-11-19T06:34:22;10.50;81.20
83685;DHT22;73666;51.304;5.776;2023-11-19T06:39:23;10.50;81.10
83685;DHT22;73666;51.304;5.776;2023-11-19T06:44:24;10.40;81.10
83685;DHT22;73666;51.304;5.776;2023-11-19T06:49:25;10.40;81.20
83685;DHT22;73666;51.304;5.776;2023-11-19T06:54:26;10.30;81.20
83685;DHT22;73666;51.304;5.776;2023-11-19T06:59:27;10.30;81.10
83685;DHT22;73666;51.304;5.776;2023-11-19T07:04:27;10.30;81.10
83685;DHT22;73666;51.304;5.776;2023-11-19T07:09:28;10.20;81.00
83685;DHT22;73666;51.304;5.776;2023-11-19T07:14:28;10.20;81.10
83685;DHT22;73666;51.304;5.776;2023-11-19T07:19:30;10.20;81.00
83685;DHT22;73666;51.304;5.776;2023-11-19T07:24:30;10.20;81.00
83685;DHT22;73666;51.304;5.776;2023-11-19T07:29:32;10.30;80.90
83685;DHT22;73666;51.304;5.776;2023-11-19T07:34:32;10.30;81.00
83685;DHT22;73666;51.304;5.776;2023-11-19T07:39:34;10.40;80.70
83685;DHT22;73666;51.304;5.776;2023-11-19T07:44:36;10.40;80.60
83685;DHT22;73666;51.304;5.776;2023-11-19T07:49:37;10.50;80.50
83685;DHT22;73666;51.304;5.776;2023-11-19T07:54:39;10.50;80.40
83685;DHT22;73666;51.304;5.776;2023-11-19T07:59:39;10.60;80.20
83685;DHT22;73666;51.304;5.776;2023-11-19T08:04:40;10.70;80.10
83685;DHT22;73666;51.304;5.776;2023-11-19T08:09:45;10.70;80.10
83685;DHT22;73666;51.304;5.776;2023-11-19T08:14:46;10.70;80.00
83685;DHT22;73666;51.304;5.776;2023-11-19T08:19:47;10.80;79.90
83685;DHT22;73666;51.304;5.776;2023-11-19T08:24:48;10.80;79.80
83685;DHT22;73666;51.304;5.776;2023-11-19T08:29:49;10.90;79.80
83685;DHT22;73666;51.304;5.776;2023-11-19T08:34:50;11.00;79.70
83685;DHT22;73666;51.304;5.776;2023-11-19T08:39:52;11.10;79.50
83685;DHT22;73666;51.304;5.776;2023-11-19T08:44:53;11.30;79.30
83685;DHT22;73666;51.304;5.776;2023-11-19T08:49:55;11.50;78.90
83685;DHT22;73666;51.304;5.776;2023-11-19T08:54:55;11.60;79.00
83685;DHT22;73666;51.304;5.776;2023-11-19T08:59:56;11.90;78.60
83685;DHT22;73666;51.304;5.776;2023-11-19T09:04:57;11.90;78.40
83685;DHT22;73666;51.304;5.776;2023-11-19T09:09:59;12.00;78.30
83685;DHT22;73666;51.304;5.776;2023-11-19T09:15:00;12.20;78.10
83685;DHT22;73666;51.304;5.776;2023-11-19T09:20:00;12.30;77.90
83685;DHT22;73666;51.304;5.776;2023-11-19T09:25:01;12.50;77.90
83685;DHT22;73666;51.304;5.776;2023-11-19T09:30:09;12.50;77.60
83685;DHT22;73666;51.304;5.776;2023-11-19T09:35:19;12.20;78.00
83685;DHT22;73666;51.304;5.776;2023-11-19T09:40:23;12.10;78.00
83685;DHT22;73666;51.304;5.776;2023-11-19T09:45:27;12.10;78.00
83685;DHT22;73666;51.304;5.776;2023-11-19T09:50:28;12.20;77.50
83685;DHT22;73666;51.304;5.776;2023-11-19T09:55:29;12.30;77.60
83685;DHT22;73666;51.304;5.776;2023-11-19T10:00:30;12.50;77.30
83685;DHT22;73666;51.304;5.776;2023-11-19T10:05:31;12.50;77.20
83685;DHT22;73666;51.304;5.776;2023-11-19T10:10:32;12.60;77.00
83685;DHT22;73666;51.304;5.776;2023-11-19T10:15:36;12.60;76.60
83685;DHT22;73666;51.304;5.776;2023-11-19T10:20:38;12.70;76.60
83685;DHT22;73666;51.304;5.776;2023-11-19T10:25:40;12.80;76.60
83685;DHT22;73666;51.304;5.776;2023-11-19T10:30:41;13.00;76.40
83685;DHT22;73666;51.304;5.776;2023-11-19T10:35:58;13.10;76.10
83685;DHT22;73666;51.304;5.776;2023-11-19T10:41:00;13.10;76.20
83685;DHT22;73666;51.304;5.776;2023-11-19T10:46:13;12.90;76.20
83685;DHT22;73666;51.304;5.776;2023-11-19T10:51:19;12.90;76.00
83685;DHT22;73666;51.304;5.776;2023-11-19T10:56:30;12.90;76.20
83685;DHT22;73666;51.304;5.776;2023-11-19T11:01:45;13.00;76.00
83685;DHT22;73666;51.304;5.776;2023-11-19T11:06:46;13.10;75.70
83685;DHT22;73666;51.304;5.776;2023-11-19T11:11:47;13.30;75.50
83685;DHT22;73666;51.304;5.776;2023-11-19T11:16:49;13.40;74.90
83685;DHT22;73666;51.304;5.776;2023-11-19T11:21:53;13.30;75.00
83685;DHT22;73666;51.304;5.776;2023-11-19T11:27:14;13.40;74.80
83685;DHT22;73666;51.304;5.776;2023-11-19T11:32:25;13.30;74.90
83685;DHT22;73666;51.304;5.776;2023-11-19T11:37:37;13.30;75.20
83685;DHT22;73666;51.304;5.776;2023-11-19T11:42:39;13.20;75.20
83685;DHT22;73666;51.304;5.776;2023-11-19T11:57:57;13.00;75.00
83685;DHT22;73666;51.304;5.776;2023-11-19T12:03:04;12.70;75.50
83685;DHT22;73666;51.304;5.776;2023-11-19T12:08:06;12.50;76.20
83685;DHT22;73666;51.304;5.776;2023-11-19T12:13:07;12.50;76.50
83685;DHT22;73666;51.304;5.776;2023-11-19T12:18:08;12.70;76.10
83685;DHT22;73666;51.304;5.776;2023-11-19T12:23:09;12.70;76.10
83685;DHT22;73666;51.304;5.776;2023-11-19T12:28:14;12.80;75.90
83685;DHT22;73666;51.304;5.776;2023-11-19T12:33:16;13.10;75.80
83685;DHT22;73666;51.304;5.776;2023-11-19T12:38:24;13.10;75.60
83685;DHT22;73666;51.304;5.776;2023-11-19T12:43:25;13.30;75.60
83685;DHT22;73666;51.304;5.776;2023-11-19T12:48:30;13.50;75.20
83685;DHT22;73666;51.304;5.776;2023-11-19T12:53:51;13.50;75.10
83685;DHT22;73666;51.304;5.776;2023-11-19T12:58:54;13.50;74.80
83685;DHT22;73666;51.304;5.776;2023-11-19T13:03:55;13.50;74.80
83685;DHT22;73666;51.304;5.776;2023-11-19T13:08:56;13.30;75.00
83685;DHT22;73666;51.304;5.776;2023-11-19T13:18:59;13.00;75.40
83685;DHT22;73666;51.304;5.776;2023-11-19T13:24:00;12.80;75.60
83685;DHT22;73666;51.304;5.776;2023-11-19T13:29:01;12.70;75.70
83685;DHT22;73666;51.304;5.776;2023-11-19T13:34:02;12.70;75.50
83685;DHT22;73666;51.304;5.776;2023-11-19T13:39:03;12.70;75.50
83685;DHT22;73666;51.304;5.776;2023-11-19T13:44:03;12.60;75.50
83685;DHT22;73666;51.304;5.776;2023-11-19T13:49:04;12.50;75.70
83685;DHT22;73666;51.304;5.776;2023-11-19T13:54:05;12.30;75.90
83685;DHT22;73666;51.304;5.776;2023-11-19T13:59:06;12.10;76.20
83685;DHT22;73666;51.304;5.776;2023-11-19T14:04:09;11.90;76.50
83685;DHT22;73666;51.304;5.776;2023-11-19T14:09:09;11.90;76.70
83685;DHT22;73666;51.304;5.776;2023-11-19T14:14:10;11.70;77.00
83685;DHT22;73666;51.304;5.776;2023-11-19T14:19:11;11.90;77.00
83685;DHT22;73666;51.304;5.776;2023-11-19T14:24:12;11.90;77.00
83685;DHT22;73666;51.304;5.776;2023-11-19T14:29:12;11.90;77.10
83685;DHT22;73666;51.304;5.776;2023-11-19T14:34:13;11.90;77.10
83685;DHT22;73666;51.304;5.776;2023-11-19T14:39:14;12.00;77.20
83685;DHT22;73666;51.304;5.776;2023-11-19T14:44:15;12.00;77.20
83685;DHT22;73666;51.304;5.776;2023-11-19T14:49:16;11.90;77.20
83685;DHT22;73666;51.304;5.776;2023-11-19T14:54:16;11.90;77.40
83685;DHT22;73666;51.304;5.776;2023-11-19T14:59:17;11.80;77.50
83685;DHT22;73666;51.304;5.776;2023-11-19T15:04:18;11.70;77.50
83685;DHT22;73666;51.304;5.776;2023-11-19T15:09:19;11.70;77.60
83685;DHT22;73666;51.304;5.776;2023-11-19T15:14:21;11.70;77.60
83685;DHT22;73666;51.304;5.776;2023-11-19T15:19:22;11.70;77.50
83685;DHT22;73666;51.304;5.776;2023-11-19T15:24:23;11.70;77.60
83685;DHT22;73666;51.304;5.776;2023-11-19T15:29:23;11.70;77.70
83685;DHT22;73666;51.304;5.776;2023-11-19T15:34:24;11.60;77.80
83685;DHT22;73666;51.304;5.776;2023-11-19T15:39:25;11.50;77.80
83685;DHT22;73666;51.304;5.776;2023-11-19T15:44:27;11.40;77.90
83685;DHT22;73666;51.304;5.776;2023-11-19T15:49:29;11.30;78.10
83685;DHT22;73666;51.304;5.776;2023-11-19T15:54:30;11.20;78.30
83685;DHT22;73666;51.304;5.776;2023-11-19T15:59:30;11.10;78.50
83685;DHT22;73666;51.304;5.776;2023-11-19T16:04:31;11.00;78.70
83685;DHT22;73666;51.304;5.776;2023-11-19T16:09:32;10.90;78.80
83685;DHT22;73666;51.304;5.776;2023-11-19T16:14:33;10.90;78.80
83685;DHT22;73666;51.304;5.776;2023-11-19T16:19:34;10.80;78.90
83685;DHT22;73666;51.304;5.776;2023-11-19T16:24:35;10.90;78.90
83685;DHT22;73666;51.304;5.776;2023-11-19T16:29:37;10.90;78.90
83685;DHT22;73666;51.304;5.776;2023-11-19T16:34:38;10.90;78.90
83685;DHT22;73666;51.304;5.776;2023-11-19T16:39:43;10.90;79.00
83685;DHT22;73666;51.304;5.776;2023-11-19T16:44:44;10.90;79.00
83685;DHT22;73666;51.304;5.776;2023-11-19T16:49:45;10.80;79.00
83685;DHT22;73666;51.304;5.776;2023-11-19T16:54:46;10.90;79.10
83685;DHT22;73666;51.304;5.776;2023-11-19T16:59:46;10.90;79.00
83685;DHT22;73666;51.304;5.776;2023-11-19T17:04:49;10.90;79.00
83685;DHT22;73666;51.304;5.776;2023-11-19T17:09:49;10.90;78.90
83685;DHT22;73666;51.304;5.776;2023-11-19T17:14:50;10.90;78.90
83685;DHT22;73666;51.304;5.776;2023-11-19T17:19:53;10.90;78.90
83685;DHT22;73666;51.304;5.776;2023-11-19T17:24:54;10.90;78.90
83685;DHT22;73666;51.304;5.776;2023-11-19T17:29:58;10.90;78.90
83685;DHT22;73666;51.304;5.776;2023-11-19T17:34:59;10.90;78.90
83685;DHT22;73666;51.304;5.776;2023-11-19T17:39:59;10.80;78.90
83685;DHT22;73666;51.304;5.776;2023-11-19T17:45:00;10.80;79.00
83685;DHT22;73666;51.304;5.776;2023-11-19T17:50:01;10.80;79.00
83685;DHT22;73666;51.304;5.776;2023-11-19T17:55:04;10.80;79.10
83685;DHT22;73666;51.304;5.776;2023-11-19T18:00:06;10.70;79.20
83685;DHT22;73666;51.304;5.776;2023-11-19T18:05:11;10.70;79.30
83685;DHT22;73666;51.304;5.776;2023-11-19T18:10:12;10.70;79.30
83685;DHT22;73666;51.304;5.776;2023-11-19T18:15:15;10.70;79.30
83685;DHT22;73666;51.304;5.776;2023-11-19T18:20:15;10.70;79.40
83685;DHT22;73666;51.304;5.776;2023-11-19T18:25:16;10.70;79.40
83685;DHT22;73666;51.304;5.776;2023-11-19T18:30:18;10.70;79.50
83685;DHT22;73666;51.304;5.776;2023-11-19T18:35:18;10.60;79.50
83685;DHT22;73666;51.304;5.776;2023-11-19T18:40:23;10.60;79.60
83685;DHT22;73666;51.304;5.776;2023-11-19T18:45:25;10.60;79.70
83685;DHT22;73666;51.304;5.776;2023-11-19T18:50:26;10.60;79.70
83685;DHT22;73666;51.304;5.776;2023-11-19T18:55:27;10.70;79.70
83685;DHT22;73666;51.304;5.776;2023-11-19T19:00:29;10.60;79.80
83685;DHT22;73666;51.304;5.776;2023-11-19T19:05:30;10.60;79.80
83685;DHT22;73666;51.304;5.776;2023-11-19T19:10:30;10.60;79.90
83685;DHT22;73666;51.304;5.776;2023-11-19T19:15:31;10.60;80.00
83685;DHT22;73666;51.304;5.776;2023-11-19T19:20:33;10.60;80.00
83685;DHT22;73666;51.304;5.776;2023-11-19T19:25:34;10.60;80.00
83685;DHT22;73666;51.304;5.776;2023-11-19T19:30:35;10.60;80.00
83685;DHT22;73666;51.304;5.776;2023-11-19T19:35:37;10.60;80.10
83685;DHT22;73666;51.304;5.776;2023-11-19T19:40:38;10.60;80.10
83685;DHT22;73666;51.304;5.776;2023-11-19T19:45:39;10.60;80.10
83685;DHT22;73666;51.304;5.776;2023-11-19T19:50:42;10.60;80.20
83685;DHT22;73666;51.304;5.776;2023-11-19T19:55:43;10.60;80.20
83685;DHT22;73666;51.304;5.776;2023-11-19T20:00:44;10.60;80.20
83685;DHT22;73666;51.304;5.776;2023-11-19T20:05:45;10.60;80.30
83685;DHT22;73666;51.304;5.776;2023-11-19T20:10:46;10.60;80.20
83685;DHT22;73666;51.304;5.776;2023-11-19T20:15:46;10.60;80.20
83685;DHT22;73666;51.304;5.776;2023-11-19T20:20:50;10.60;80.20
83685;DHT22;73666;51.304;5.776;2023-11-19T20:25:53;10.60;80.20
83685;DHT22;73666;51.304;5.776;2023-11-19T20:30:54;10.60;80.20
83685;DHT22;73666;51.304;5.776;2023-11-19T20:35:55;10.60;80.20
83685;DHT22;73666;51.304;5.776;2023-11-19T20:40:58;10.60;80.20
83685;DHT22;73666;51.304;5.776;2023-11-19T20:45:59;10.60;80.30
83685;DHT22;73666;51.304;5.776;2023-11-19T20:51:00;10.60;80.30
83685;DHT22;73666;51.304;5.776;2023-11-19T20:56:02;10.60;80.30
83685;DHT22;73666;51.304;5.776;2023-11-19T21:01:04;10.60;80.40
83685;DHT22;73666;51.304;5.776;2023-11-19T21:06:04;10.60;80.30
83685;DHT22;73666;51.304;5.776;2023-11-19T21:11:08;10.70;80.40
83685;DHT22;73666;51.304;5.776;2023-11-19T21:16:09;10.70;80.40
83685;DHT22;73666;51.304;5.776;2023-11-19T21:21:13;10.70;80.40
83685;DHT22;73666;51.304;5.776;2023-11-19T21:26:14;10.70;80.40
83685;DHT22;73666;51.304;5.776;2023-11-19T21:31:15;10.70;80.30
83685;DHT22;73666;51.304;5.776;2023-11-19T21:36:17;10.70;80.40
83685;DHT22;73666;51.304;5.776;2023-11-19T21:41:18;10.70;80.40
83685;DHT22;73666;51.304;5.776;2023-11-19T21:46:19;10.80;80.40
83685;DHT22;73666;51.304;5.776;2023-11-19T21:51:21;10.80;80.30
83685;DHT22;73666;51.304;5.776;2023-11-19T21:56:22;10.80;80.30
83685;DHT22;73666;51.304;5.776;2023-11-19T22:01:22;10.80;80.30
83685;DHT22;73666;51.304;5.776;2023-11-19T22:06:23;10.80;80.20
83685;DHT22;73666;51.304;5.776;2023-11-19T22:11:24;10.80;80.20
83685;DHT22;73666;51.304;5.776;2023-11-19T22:16:27;10.80;80.20
83685;DHT22;73666;51.304;5.776;2023-11-19T22:21:27;10.80;80.20
83685;DHT22;73666;51.304;5.776;2023-11-19T22:26:28;10.80;80.20
83685;DHT22;73666;51.304;5.776;2023-11-19T22:31:33;10.80;80.30
83685;DHT22;73666;51.304;5.776;2023-11-19T22:36:34;10.80;80.40
83685;DHT22;73666;51.304;5.776;2023-11-19T22:41:35;10.80;80.40
83685;DHT22;73666;51.304;5.776;2023-11-19T22:46:36;10.80;80.40
83685;DHT22;73666;51.304;5.776;2023-11-19T22:51:37;10.80;80.50
83685;DHT22;73666;51.304;5.776;2023-11-19T22:56:38;10.80;80.40
83685;DHT22;73666;51.304;5.776;2023-11-19T23:01:39;10.80;80.40
83685;DHT22;73666;51.304;5.776;2023-11-19T23:06:41;10.80;80.40
83685;DHT22;73666;51.304;5.776;2023-11-19T23:11:43;10.80;80.50
83685;DHT22;73666;51.304;5.776;2023-11-19T23:16:44;10.80;80.40
83685;DHT22;73666;51.304;5.776;2023-11-19T23:21:45;10.80;80.40
83685;DHT22;73666;51.304;5.776;2023-11-19T23:26:47;10.80;80.30
83685;DHT22;73666;51.304;5.776;2023-11-19T23:31:48;10.80;80.30
83685;DHT22;73666;51.304;5.776;2023-11-19T23:36:48;10.80;80.20
83685;DHT22;73666;51.304;5.776;2023-11-19T23:41:49;10.80;80.00
83685;DHT22;73666;51.304;5.776;2023-11-19T23:46:51;10.80;80.10
83685;DHT22;73666;51.304;5.776;2023-11-19T23:51:51;10.80;80.00
83685;DHT22;73666;51.304;5.776;2023-11-19T23:56:52;10.80;80.10
